Edgartown, Massachusetts
Current Conditions -  °F | °C
As of 5:53 PM on Wednesday 26 Nov 2014 (Local Time) from KMVY Reporting Station
Heavy Rain Heavy Rain  
Wind Chill: 35°   Ceiling: 700
Heat Index: 44°   Visibility: 3mi
Dew Point: 43°   Wind: 25mph
Humidity: 96%   Direction: 30°NNE
Pressure: 29.68"   Gusts: 37mph
Location:  41.39°N, 70.52°W
Report Text: KMVY 262253Z AUTO 03022G32KT 3SM +RA BR BKN007 BKN012 OVC029 07/06 A2968 RMK AO2 PK WND 05041/2211 SLP050 P0041 T00670061
Loading
Personal Weather Stations






























Interactive Weather Map New forecast layout! Learn more

10-Day Weather Forecast

Advertisements
Track Severe Weather on mobile